createdAt,value
2017-07-14T00:00:17.466Z,99.99
2017-07-14T00:01:17.443Z,99.99
2017-07-14T00:02:17.426Z,99.99
2017-07-14T00:03:17.409Z,99.99
2017-07-14T00:04:17.087Z,99.99
2017-07-14T00:05:17.384Z,99.99
2017-07-14T00:06:17.057Z,99.99
2017-07-14T00:07:17.347Z,99.99
2017-07-14T00:08:17.335Z,99.99
2017-07-14T00:09:17.307Z,99.99
2017-07-14T00:10:16.982Z,99.99
2017-07-14T00:11:17.275Z,99.99
2017-07-14T00:12:16.949Z,99.99
2017-07-14T00:13:16.950Z,99.99
2017-07-14T00:14:17.228Z,99.99
2017-07-14T00:15:16.917Z,99.99
2017-07-14T00:16:17.189Z,99.99
2017-07-14T00:17:17.197Z,99.99
2017-07-14T00:18:17.173Z,99.99
2017-07-14T00:19:16.841Z,99.99
2017-07-14T00:20:17.142Z,99.99
2017-07-14T00:21:16.803Z,99.99
2017-07-14T00:22:17.108Z,99.99
2017-07-14T00:23:17.077Z,99.99
2017-07-14T00:24:17.079Z,99.99
2017-07-14T00:25:16.806Z,99.99
2017-07-14T00:26:17.032Z,99.99
2017-07-14T00:27:17.027Z,99.99
2017-07-14T00:28:17.019Z,99.99
2017-07-14T00:29:17.008Z,99.99
2017-07-14T00:30:16.968Z,99.99
2017-07-14T00:31:16.957Z,99.99
2017-07-14T00:32:16.948Z,99.99
2017-07-14T00:33:16.920Z,99.99
2017-07-14T00:34:16.913Z,99.99
2017-07-14T00:35:16.897Z,99.99
2017-07-14T00:36:16.869Z,99.99
2017-07-14T00:37:16.851Z,99.99
2017-07-14T00:38:16.853Z,99.99
2017-07-14T00:39:16.829Z,99.99
2017-07-14T00:40:16.799Z,99.99
2017-07-14T00:41:16.839Z,99.99
2017-07-14T00:42:16.783Z,99.99
2017-07-14T00:43:16.755Z,99.99
2017-07-14T00:44:16.430Z,99.99
2017-07-14T00:45:16.718Z,99.99
2017-07-14T00:46:16.703Z,99.99
2017-07-14T00:47:16.680Z,99.99
2017-07-14T00:48:16.673Z,99.99
2017-07-14T00:49:16.649Z,99.99
2017-07-14T00:50:16.328Z,99.99
2017-07-14T00:51:16.624Z,99.99
2017-07-14T00:52:16.288Z,99.99
2017-07-14T00:53:16.584Z,99.99
2017-07-14T00:54:16.587Z,99.99
2017-07-14T00:55:16.239Z,99.99
2017-07-14T00:56:16.532Z,99.99
2017-07-14T00:57:16.508Z,99.99
2017-07-14T00:58:16.508Z,99.99
2017-07-14T00:59:16.488Z,99.99
2017-07-14T01:00:16.488Z,99.99
2017-07-14T01:01:16.458Z,99.99
2017-07-14T01:02:16.448Z,99.99
2017-07-14T01:03:16.417Z,99.99
2017-07-14T01:04:16.401Z,99.99
2017-07-14T01:05:16.391Z,99.99
2017-07-14T01:06:16.370Z,99.99
2017-07-14T01:07:16.349Z,99.99
2017-07-14T01:08:16.349Z,99.99
2017-07-14T01:09:16.321Z,99.99
2017-07-14T01:10:16.306Z,99.99
2017-07-14T01:11:15.969Z,99.99
2017-07-14T01:12:16.274Z,99.99
2017-07-14T01:13:15.942Z,99.99
2017-07-14T01:14:16.231Z,99.99
2017-07-14T01:15:16.218Z,99.99
2017-07-14T01:16:16.201Z,99.99
2017-07-14T01:17:16.175Z,99.99
2017-07-14T01:18:16.171Z,99.99
2017-07-14T01:19:16.162Z,99.99
2017-07-14T01:20:15.818Z,99.99
2017-07-14T01:21:16.108Z,99.99
2017-07-14T01:22:15.788Z,99.99
2017-07-14T01:23:16.084Z,99.99
2017-07-14T01:24:16.056Z,99.99
2017-07-14T01:25:15.731Z,99.99
2017-07-14T01:26:16.029Z,99.99
2017-07-14T01:27:15.702Z,99.99
2017-07-14T01:28:15.986Z,99.99
2017-07-14T01:29:15.668Z,99.99
2017-07-14T01:30:15.957Z,99.99
2017-07-14T01:31:15.625Z,99.99
2017-07-14T01:32:15.923Z,99.99
2017-07-14T01:33:15.647Z,99.99
2017-07-14T01:34:15.900Z,99.99
2017-07-14T01:35:15.567Z,99.99
2017-07-14T01:36:15.853Z,99.99
2017-07-14T01:37:15.897Z,99.99
2017-07-14T01:38:15.841Z,99.99
2017-07-14T01:39:15.913Z,99.99
2017-07-14T01:40:15.805Z,99.99
2017-07-14T01:41:15.836Z,99.99
2017-07-14T01:42:15.754Z,99.99
2017-07-14T01:43:15.842Z,99.99
2017-07-14T01:44:15.723Z,99.99
2017-07-14T01:45:15.709Z,99.99
2017-07-14T01:46:15.376Z,99.99
2017-07-14T01:47:15.675Z,99.99
2017-07-14T01:48:15.646Z,99.99
2017-07-14T01:49:15.691Z,99.99
2017-07-14T01:50:15.629Z,99.99
2017-07-14T01:51:15.657Z,99.99
2017-07-14T01:52:15.577Z,99.99
2017-07-14T01:53:15.677Z,99.99
2017-07-14T01:54:15.546Z,99.99
2017-07-14T01:55:15.530Z,99.99
2017-07-14T01:56:15.196Z,99.99
2017-07-14T01:57:15.504Z,99.99
2017-07-14T01:58:15.167Z,99.99
2017-07-14T01:59:15.147Z,99.99
2017-07-14T02:00:15.490Z,99.99
2017-07-14T02:01:15.441Z,99.99
2017-07-14T02:02:15.418Z,99.99
2017-07-14T02:03:15.186Z,99.99
2017-07-14T02:04:15.060Z,99.99
2017-07-14T02:05:15.407Z,99.99
2017-07-14T02:06:15.028Z,99.99
2017-07-14T02:07:15.319Z,99.99
2017-07-14T02:08:15.386Z,99.99
2017-07-14T02:09:15.338Z,99.99
2017-07-14T02:10:15.279Z,99.99
2017-07-14T02:11:14.946Z,99.99
2017-07-14T02:12:14.928Z,99.99
2017-07-14T02:13:15.265Z,99.99
2017-07-14T02:14:15.197Z,99.99
2017-07-14T02:15:15.182Z,99.99
2017-07-14T02:16:15.186Z,99.99
2017-07-14T02:17:15.171Z,99.99
2017-07-14T02:18:15.135Z,99.99
2017-07-14T02:19:14.805Z,99.99
2017-07-14T02:20:15.181Z,99.99
2017-07-14T02:21:15.078Z,99.99
2017-07-14T02:22:14.747Z,99.99
2017-07-14T02:23:15.048Z,99.99
2017-07-14T02:24:14.741Z,99.99
2017-07-14T02:25:14.697Z,99.99
2017-07-14T02:26:14.999Z,99.99
2017-07-14T02:27:14.977Z,99.99
2017-07-14T02:28:14.962Z,99.99
2017-07-14T02:29:14.946Z,99.99
2017-07-14T02:30:14.611Z,99.99
2017-07-14T02:31:14.915Z,99.99
2017-07-14T02:32:14.578Z,99.99
2017-07-14T02:33:14.887Z,99.99
2017-07-14T02:34:14.555Z,99.99
2017-07-14T02:35:14.837Z,99.99
2017-07-14T02:36:14.820Z,99.99
2017-07-14T02:37:14.807Z,99.99
2017-07-14T02:38:14.791Z,99.99
2017-07-14T02:39:14.780Z,99.99
2017-07-14T02:40:14.437Z,99.99
2017-07-14T02:41:14.742Z,99.99
2017-07-14T02:42:14.404Z,99.99
2017-07-14T02:43:14.390Z,99.99
2017-07-14T02:44:14.676Z,99.99
2017-07-14T02:45:14.659Z,99.99
2017-07-14T02:46:14.656Z,99.99
2017-07-14T02:47:14.647Z,99.99
2017-07-14T02:48:14.639Z,99.99
2017-07-14T02:49:14.605Z,99.99
2017-07-14T02:50:14.592Z,99.99
2017-07-14T02:51:14.557Z,99.99
2017-07-14T02:52:14.557Z,99.99
2017-07-14T02:53:14.538Z,99.99
2017-07-14T02:54:14.517Z,99.99
2017-07-14T02:55:14.496Z,99.99
2017-07-14T02:56:14.472Z,99.99
2017-07-14T02:57:14.461Z,99.99
2017-07-14T02:58:14.444Z,99.99
2017-07-14T02:59:14.434Z,99.99
2017-07-14T03:00:14.418Z,99.99
2017-07-14T03:01:14.383Z,99.99
2017-07-14T03:02:14.057Z,99.99
2017-07-14T03:03:14.049Z,99.99
2017-07-14T03:04:14.327Z,99.99
2017-07-14T03:05:14.317Z,99.99
2017-07-14T03:06:14.306Z,99.99
2017-07-14T03:07:13.973Z,99.99
2017-07-14T03:08:14.288Z,99.99
2017-07-14T03:09:14.247Z,99.99
2017-07-14T03:10:14.236Z,99.99
2017-07-14T03:11:13.908Z,99.99
2017-07-14T03:12:14.199Z,99.99
2017-07-14T03:13:13.868Z,99.99
2017-07-14T03:14:13.847Z,99.99
2017-07-14T03:15:13.830Z,99.99
2017-07-14T03:16:14.122Z,99.99
2017-07-14T03:17:14.107Z,99.99
2017-07-14T03:18:14.101Z,99.99
2017-07-14T03:19:14.070Z,99.99
2017-07-14T03:20:13.746Z,99.99
2017-07-14T03:21:14.037Z,99.99
2017-07-14T03:22:14.032Z,99.99
2017-07-14T03:23:14.001Z,99.99
2017-07-14T03:24:13.989Z,99.99
2017-07-14T03:25:13.659Z,99.99
2017-07-14T03:26:13.645Z,99.99
2017-07-14T03:27:13.947Z,99.99
2017-07-14T03:28:13.915Z,99.99
2017-07-14T03:29:13.907Z,99.99
2017-07-14T03:30:13.881Z,99.99
2017-07-14T03:31:13.557Z,99.99
2017-07-14T03:32:13.846Z,99.99
2017-07-14T03:33:13.515Z,99.99
2017-07-14T03:34:13.814Z,99.99
2017-07-14T03:35:13.800Z,99.99
2017-07-14T03:36:13.774Z,99.99
2017-07-14T03:37:13.770Z,99.99
2017-07-14T03:38:13.739Z,99.99
2017-07-14T03:39:13.412Z,99.99
2017-07-14T03:40:13.458Z,99.99
2017-07-14T03:41:13.690Z,99.99
2017-07-14T03:42:13.667Z,99.99
2017-07-14T03:43:13.349Z,99.99
2017-07-14T03:44:13.636Z,99.99
2017-07-14T03:45:13.307Z,99.99
2017-07-14T03:46:13.390Z,99.99
2017-07-14T03:47:13.278Z,99.99
2017-07-14T03:48:13.556Z,99.99
2017-07-14T03:49:13.552Z,99.99
2017-07-14T03:50:13.530Z,99.99
2017-07-14T03:51:13.506Z,99.99
2017-07-14T03:52:13.183Z,99.99
2017-07-14T03:53:13.467Z,99.99
2017-07-14T03:54:13.457Z,99.99
2017-07-14T03:55:13.447Z,99.99
2017-07-14T03:56:13.116Z,99.99
2017-07-14T03:57:13.408Z,99.99
2017-07-14T03:58:13.231Z,99.99
2017-07-14T03:59:13.377Z,99.99
2017-07-14T04:00:13.364Z,99.99
2017-07-14T04:01:13.337Z,99.99
2017-07-14T04:02:13.328Z,99.99
2017-07-14T04:03:13.299Z,99.99
2017-07-14T04:04:13.281Z,99.99
2017-07-14T04:05:13.267Z,99.99
2017-07-14T04:06:13.249Z,99.99
2017-07-14T04:07:12.920Z,99.99
2017-07-14T04:08:13.217Z,99.99
2017-07-14T04:09:12.889Z,99.99
2017-07-14T04:10:13.176Z,99.99
2017-07-14T04:11:13.157Z,99.99
2017-07-14T04:12:12.878Z,99.99
2017-07-14T04:13:13.121Z,99.99
2017-07-14T04:14:12.795Z,99.99
2017-07-14T04:15:12.778Z,99.99
2017-07-14T04:16:13.094Z,99.99
2017-07-14T04:17:13.055Z,99.99
2017-07-14T04:18:13.040Z,99.99
2017-07-14T04:19:12.720Z,99.99
2017-07-14T04:20:12.994Z,99.99
2017-07-14T04:21:12.982Z,99.99
2017-07-14T04:22:12.646Z,99.99
2017-07-14T04:23:12.946Z,99.99
2017-07-14T04:24:12.927Z,99.99
2017-07-14T04:25:12.911Z,99.99
2017-07-14T04:26:12.899Z,99.99
2017-07-14T04:27:12.885Z,99.99
2017-07-14T04:28:12.547Z,99.99
2017-07-14T04:29:12.851Z,99.99
2017-07-14T04:30:12.819Z,99.99
2017-07-14T04:31:12.497Z,99.99
2017-07-14T04:32:12.798Z,99.99
2017-07-14T04:33:12.775Z,99.99
2017-07-14T04:34:12.766Z,99.99
2017-07-14T04:35:12.736Z,99.99
2017-07-14T04:36:12.715Z,99.99
2017-07-14T04:37:12.386Z,99.99
2017-07-14T04:38:12.696Z,99.99
2017-07-14T04:39:12.359Z,99.99
2017-07-14T04:40:12.337Z,99.99
2017-07-14T04:41:12.626Z,99.99
2017-07-14T04:42:12.298Z,99.99
2017-07-14T04:43:12.289Z,99.99
2017-07-14T04:44:12.574Z,99.99
2017-07-14T04:45:12.555Z,99.99
2017-07-14T04:46:12.551Z,99.99
2017-07-14T04:47:12.546Z,99.99
2017-07-14T04:48:12.196Z,99.99
2017-07-14T04:49:12.495Z,99.99
2017-07-14T04:50:12.496Z,99.99
2017-07-14T04:51:12.144Z,99.99
2017-07-14T04:52:12.128Z,99.99
2017-07-14T04:53:12.107Z,99.99
2017-07-14T04:54:12.409Z,99.99
2017-07-14T04:55:12.077Z,99.99
2017-07-14T04:56:12.056Z,99.99
2017-07-14T04:57:12.357Z,99.99
2017-07-14T04:58:12.346Z,99.99
2017-07-14T04:59:12.321Z,99.99
2017-07-14T05:00:12.306Z,99.99
2017-07-14T05:01:12.292Z,99.99
2017-07-14T05:02:12.266Z,99.99
2017-07-14T05:03:12.250Z,99.99
2017-07-14T05:04:12.234Z,99.99
2017-07-14T05:05:12.228Z,99.99
2017-07-14T05:06:12.202Z,99.99
2017-07-14T05:07:11.867Z,99.99
2017-07-14T05:08:12.158Z,99.99
2017-07-14T05:09:12.158Z,99.99
2017-07-14T05:10:12.129Z,99.99
2017-07-14T05:11:12.118Z,99.99
2017-07-14T05:12:11.776Z,99.99
2017-07-14T05:13:11.766Z,99.99
2017-07-14T05:14:12.086Z,99.99
2017-07-14T05:15:12.060Z,99.99
2017-07-14T05:16:11.723Z,99.99
2017-07-14T05:17:12.017Z,99.99
2017-07-14T05:18:12.108Z,99.99
2017-07-14T05:19:11.665Z,99.99
2017-07-14T05:20:12.034Z,99.99
2017-07-14T05:21:11.949Z,99.99
2017-07-14T05:22:11.726Z,99.99
2017-07-14T05:23:11.895Z,99.99
2017-07-14T05:24:11.879Z,99.99
2017-07-14T05:25:11.869Z,99.99
2017-07-14T05:26:11.545Z,99.99
2017-07-14T05:27:11.833Z,99.99
2017-07-14T05:28:11.840Z,99.99
2017-07-14T05:29:11.805Z,99.99
2017-07-14T05:30:11.891Z,99.99
2017-07-14T05:31:11.776Z,99.99
2017-07-14T05:32:11.757Z,99.99
2017-07-14T05:33:11.730Z,99.99
2017-07-14T05:34:11.729Z,99.99
2017-07-14T05:35:11.729Z,99.99
2017-07-14T05:36:11.712Z,99.99
2017-07-14T05:37:11.662Z,99.99
2017-07-14T05:38:11.690Z,99.99
2017-07-14T05:39:11.632Z,99.99
2017-07-14T05:40:11.617Z,99.99
2017-07-14T05:41:11.598Z,99.99
2017-07-14T05:42:11.267Z,99.99
2017-07-14T05:43:11.661Z,99.99
2017-07-14T05:44:11.537Z,99.99
2017-07-14T05:45:11.622Z,99.99
2017-07-14T05:46:11.566Z,99.99
2017-07-14T05:47:11.582Z,99.99
2017-07-14T05:48:11.156Z,99.99
2017-07-14T05:49:11.458Z,99.99
2017-07-14T05:50:11.553Z,99.99
2017-07-14T05:51:11.412Z,99.99
2017-07-14T05:52:11.409Z,99.99
2017-07-14T05:53:11.075Z,99.99
2017-07-14T05:54:11.409Z,99.99
2017-07-14T05:55:11.353Z,99.99
2017-07-14T05:56:11.040Z,99.99
2017-07-14T05:57:11.318Z,99.99
2017-07-14T05:58:11.294Z,99.99
2017-07-14T05:59:11.329Z,99.99
2017-07-14T06:00:11.260Z,99.99
2017-07-14T06:01:11.274Z,99.99
2017-07-14T06:02:11.226Z,99.99
2017-07-14T06:03:10.905Z,99.99
2017-07-14T06:04:11.204Z,99.99
2017-07-14T06:05:10.859Z,99.99
2017-07-14T06:06:11.165Z,99.99
2017-07-14T06:07:10.854Z,99.99
2017-07-14T06:08:10.811Z,99.99
2017-07-14T06:09:11.118Z,99.99
2017-07-14T06:10:10.780Z,99.99
2017-07-14T06:11:11.068Z,99.99
2017-07-14T06:12:11.056Z,99.99
2017-07-14T06:13:10.725Z,99.99
2017-07-14T06:14:11.019Z,99.99
2017-07-14T06:15:11.007Z,99.99
2017-07-14T06:16:11.000Z,99.99
2017-07-14T06:17:10.965Z,99.99
2017-07-14T06:18:10.970Z,99.99
2017-07-14T06:19:10.626Z,99.99
2017-07-14T06:20:10.928Z,99.99
2017-07-14T06:21:10.915Z,99.99
2017-07-14T06:22:10.886Z,99.99
2017-07-14T06:23:10.555Z,99.99
2017-07-14T06:24:10.547Z,99.99
2017-07-14T06:25:10.836Z,99.99
2017-07-14T06:26:10.819Z,99.99
2017-07-14T06:27:10.802Z,99.99
2017-07-14T06:28:10.788Z,99.99
2017-07-14T06:29:10.458Z,99.99
2017-07-14T06:30:10.756Z,99.99
2017-07-14T06:31:10.749Z,99.99
2017-07-14T06:32:10.728Z,99.99
2017-07-14T06:33:10.387Z,99.99
2017-07-14T06:34:10.697Z,99.99
2017-07-14T06:35:10.360Z,99.99
2017-07-14T06:36:10.350Z,99.99
2017-07-14T06:37:10.326Z,99.99
2017-07-14T06:38:10.631Z,99.99
2017-07-14T06:39:10.299Z,99.99
2017-07-14T06:40:10.592Z,99.99
2017-07-14T06:41:10.271Z,99.73
2017-07-14T06:42:10.244Z,99.97
2017-07-14T06:43:10.558Z,99.49
2017-07-14T06:44:10.546Z,99.99
2017-07-14T06:45:10.507Z,99.99
2017-07-14T06:46:10.497Z,99.99
2017-07-14T06:47:10.173Z,99.2
2017-07-14T06:48:10.477Z,97.52
2017-07-14T06:49:10.138Z,97.42
2017-07-14T06:50:10.427Z,96.51
2017-07-14T06:51:10.419Z,95.26
2017-07-14T06:52:10.096Z,95.84
2017-07-14T06:53:10.379Z,95.94
2017-07-14T06:54:10.057Z,96.08
2017-07-14T06:55:10.360Z,96.37
2017-07-14T06:56:10.339Z,96.37
2017-07-14T06:57:10.008Z,95.89
2017-07-14T06:58:10.309Z,95.5
2017-07-14T06:59:10.298Z,95.5
2017-07-14T07:00:09.979Z,95.12
2017-07-14T07:01:10.259Z,93.87
2017-07-14T07:02:10.252Z,94.16
2017-07-14T07:03:10.225Z,94.83
2017-07-14T07:04:10.226Z,94.98
2017-07-14T07:05:10.207Z,94.59
2017-07-14T07:06:09.867Z,94.59
2017-07-14T07:07:10.177Z,93.82
2017-07-14T07:08:09.837Z,92.91
2017-07-14T07:09:10.135Z,92.86
2017-07-14T07:10:10.122Z,90.94
2017-07-14T07:11:10.111Z,90.17
2017-07-14T07:12:10.087Z,90.17
2017-07-14T07:13:10.091Z,90.31
2017-07-14T07:14:10.057Z,88.67
2017-07-14T07:15:10.057Z,89.15
2017-07-14T07:16:10.030Z,89.54
2017-07-14T07:17:09.717Z,89.92
2017-07-14T07:18:10.008Z,90.79
2017-07-14T07:19:09.990Z,90.79
2017-07-14T07:20:09.979Z,91.03
2017-07-14T07:21:09.976Z,91.22
2017-07-14T07:22:09.946Z,90.73
2017-07-14T07:23:09.928Z,91.41
2017-07-14T07:24:09.915Z,91.13
2017-07-14T07:25:09.900Z,88.85
2017-07-14T07:26:09.580Z,88.18
2017-07-14T07:27:09.898Z,87.32
2017-07-14T07:28:09.877Z,85.2
2017-07-14T07:29:09.845Z,86.35
2017-07-14T07:30:09.839Z,86.45
2017-07-14T07:31:09.818Z,86.26
2017-07-14T07:32:09.813Z,84.53
2017-07-14T07:33:09.527Z,83.47
2017-07-14T07:34:09.776Z,83.99
2017-07-14T07:35:09.449Z,84.47
2017-07-14T07:36:09.806Z,85.63
2017-07-14T07:37:09.752Z,84.66
2017-07-14T07:38:09.728Z,83.31
2017-07-14T07:39:09.716Z,83.12
2017-07-14T07:40:09.698Z,83.41
2017-07-14T07:41:09.700Z,83.03
2017-07-14T07:42:09.664Z,83.51
2017-07-14T07:43:09.686Z,83.8
2017-07-14T07:44:09.767Z,82.49
2017-07-14T07:45:09.656Z,82.78
2017-07-14T07:46:09.652Z,82.1
2017-07-14T07:47:09.601Z,82.1
2017-07-14T07:48:09.680Z,82.29
2017-07-14T07:49:09.599Z,80.66
2017-07-14T07:50:09.258Z,80.79
2017-07-14T07:51:09.338Z,80.22
2017-07-14T07:52:09.548Z,81.27
2017-07-14T07:53:09.569Z,81.66
2017-07-14T07:54:09.538Z,82.24
2017-07-14T07:55:09.209Z,78.71
2017-07-14T07:56:09.556Z,79
2017-07-14T07:57:09.540Z,76.68
2017-07-14T07:58:09.519Z,75.62
2017-07-14T07:59:09.459Z,75.62
2017-07-14T08:00:09.528Z,75.92
2017-07-14T08:01:09.428Z,75.2
2017-07-14T08:02:09.501Z,75.78
2017-07-14T08:03:09.396Z,75.82
2017-07-14T08:04:09.434Z,75.72
2017-07-14T08:05:09.386Z,76.1
2017-07-14T08:06:09.367Z,75.62
2017-07-14T08:07:09.345Z,74.89
2017-07-14T08:08:09.340Z,75.18
2017-07-14T08:09:09.318Z,73.06
2017-07-14T08:10:09.324Z,72.09
2017-07-14T08:11:09.303Z,73.15
2017-07-14T08:12:09.299Z,72.67
2017-07-14T08:13:09.269Z,70.36
2017-07-14T08:14:09.257Z,70.26
2017-07-14T08:15:08.936Z,69.78
2017-07-14T08:16:09.246Z,69.58
2017-07-14T08:17:09.244Z,69
2017-07-14T08:18:08.897Z,69.68
2017-07-14T08:19:09.216Z,70.94
2017-07-14T08:20:08.876Z,72.86
2017-07-14T08:21:09.184Z,72.32
2017-07-14T08:22:09.167Z,72.9
2017-07-14T08:23:09.152Z,72.26
2017-07-14T08:24:09.148Z,69.26
2017-07-14T08:25:09.132Z,68.36
2017-07-14T08:26:08.809Z,68.94
2017-07-14T08:27:08.797Z,69.13
2017-07-14T08:28:09.089Z,71.06
2017-07-14T08:29:09.080Z,71.74
2017-07-14T08:30:08.770Z,72.52
2017-07-14T08:31:09.059Z,71.06
2017-07-14T08:32:09.064Z,70.23
2017-07-14T08:33:09.040Z,70.14
2017-07-14T08:34:08.717Z,69.26
2017-07-14T08:35:09.028Z,68.4
2017-07-14T08:36:09.001Z,69.81
2017-07-14T08:37:08.989Z,69.65
2017-07-14T08:38:08.973Z,69.71
2017-07-14T08:39:08.658Z,70.2
2017-07-14T08:40:08.644Z,70.58
2017-07-14T08:41:08.950Z,70.78
2017-07-14T08:42:08.938Z,72.22
2017-07-14T08:43:08.614Z,72.48
2017-07-14T08:44:08.918Z,74.41
2017-07-14T08:45:08.903Z,74.54
2017-07-14T08:46:08.906Z,70.97
2017-07-14T08:47:08.888Z,71.94
2017-07-14T08:48:08.560Z,69.71
2017-07-14T08:49:08.544Z,70.1
2017-07-14T08:50:08.840Z,71.1
2017-07-14T08:51:08.839Z,69.2
2017-07-14T08:52:08.523Z,67.69
2017-07-14T08:53:08.806Z,67.4
2017-07-14T08:54:08.809Z,66.88
2017-07-14T08:55:08.487Z,67.66
2017-07-14T08:56:08.780Z,66.82
2017-07-14T08:57:08.768Z,66.69
2017-07-14T08:58:08.759Z,67.33
2017-07-14T08:59:08.752Z,67.52
2017-07-14T09:00:08.422Z,68.68
2017-07-14T09:01:08.729Z,68.43
2017-07-14T09:02:08.728Z,67.69
2017-07-14T09:03:08.401Z,66.47
2017-07-14T09:04:08.691Z,65.59
2017-07-14T09:05:08.682Z,66.47
2017-07-14T09:06:08.680Z,67.72
2017-07-14T09:07:08.366Z,66.69
2017-07-14T09:08:08.659Z,66.02
2017-07-14T09:09:08.640Z,65.14
2017-07-14T09:10:08.647Z,65.05
2017-07-14T09:11:08.318Z,65.34
2017-07-14T09:12:08.617Z,65.27
2017-07-14T09:13:08.603Z,65.3
2017-07-14T09:14:08.614Z,64.53
2017-07-14T09:15:08.288Z,64.14
2017-07-14T09:16:08.589Z,65.53
2017-07-14T09:17:08.590Z,67.43
2017-07-14T09:18:08.255Z,67.98
2017-07-14T09:19:08.248Z,68.01
2017-07-14T09:20:08.547Z,68.69
2017-07-14T09:21:08.558Z,68.53
2017-07-14T09:22:08.537Z,66.53
2017-07-14T09:23:08.526Z,66.43
2017-07-14T09:24:08.529Z,66.37
2017-07-14T09:25:08.197Z,65.34
2017-07-14T09:26:08.517Z,63.91
2017-07-14T09:27:08.497Z,63.43
2017-07-14T09:28:08.497Z,62.1
2017-07-14T09:29:08.490Z,61.65
2017-07-14T09:30:08.472Z,61.35
2017-07-14T09:31:08.480Z,62.13
2017-07-14T09:32:08.470Z,63.23
2017-07-14T09:33:08.152Z,62.55
2017-07-14T09:34:08.457Z,61.71
2017-07-14T09:35:08.449Z,61.9
2017-07-14T09:36:08.447Z,61.19
2017-07-14T09:37:08.127Z,60.48
2017-07-14T09:38:08.438Z,61.35
2017-07-14T09:39:08.439Z,62.23
2017-07-14T09:40:08.431Z,62.32
2017-07-14T09:41:08.129Z,62.26
2017-07-14T09:42:08.408Z,59.83
2017-07-14T09:43:08.117Z,60.84
2017-07-14T09:44:08.389Z,61.52
2017-07-14T09:45:08.387Z,61.98
2017-07-14T09:46:08.382Z,62.95
2017-07-14T09:47:08.382Z,61.94
2017-07-14T09:48:08.368Z,62.62
2017-07-14T09:49:08.058Z,61.98
2017-07-14T09:50:08.348Z,61.46
2017-07-14T09:51:08.346Z,62.01
2017-07-14T09:52:08.347Z,61.52
2017-07-14T09:53:08.027Z,62.3
2017-07-14T09:54:08.330Z,62.88
2017-07-14T09:55:08.311Z,62.82
2017-07-14T09:56:08.308Z,61.94
2017-07-14T09:57:08.296Z,61.46
2017-07-14T09:58:08.287Z,62.62
2017-07-14T09:59:07.978Z,62.62
2017-07-14T10:00:08.276Z,61.94
2017-07-14T10:01:08.271Z,62.1
2017-07-14T10:02:08.259Z,62.88
2017-07-14T10:03:07.936Z,62.33
2017-07-14T10:04:07.936Z,61.39
2017-07-14T10:05:08.249Z,61.58
2017-07-14T10:06:07.916Z,60.61
2017-07-14T10:07:08.227Z,60.68
2017-07-14T10:08:08.248Z,60.38
2017-07-14T10:09:07.911Z,61
2017-07-14T10:10:08.198Z,58.79
2017-07-14T10:11:08.210Z,58.98
2017-07-14T10:12:08.188Z,60.22
2017-07-14T10:13:08.198Z,60.93
2017-07-14T10:14:07.875Z,59.76
2017-07-14T10:15:08.174Z,59.38
2017-07-14T10:16:07.987Z,59.01
2017-07-14T10:17:07.851Z,59.79
2017-07-14T10:18:07.859Z,59.82
2017-07-14T10:19:07.844Z,58.29
2017-07-14T10:20:08.150Z,56.74
2017-07-14T10:21:08.138Z,57.12
2017-07-14T10:22:08.238Z,56.32
2017-07-14T10:23:08.138Z,56
2017-07-14T10:24:08.137Z,56.56
2017-07-14T10:25:08.114Z,56.62
2017-07-14T10:26:07.807Z,57.57
2017-07-14T10:27:08.117Z,57.31
2017-07-14T10:28:08.159Z,58.31
2017-07-14T10:29:07.798Z,58.7
2017-07-14T10:30:08.090Z,59.38
2017-07-14T10:31:08.098Z,59.19
2017-07-14T10:32:08.086Z,59.81
2017-07-14T10:33:08.072Z,59.91
2017-07-14T10:34:08.076Z,59.42
2017-07-14T10:35:08.060Z,58.94
2017-07-14T10:36:08.036Z,59.16
2017-07-14T10:37:08.042Z,59.94
2017-07-14T10:38:08.027Z,59.94
2017-07-14T10:39:08.029Z,61.29
2017-07-14T10:40:07.719Z,60.91
2017-07-14T10:41:08.009Z,59.74
2017-07-14T10:42:08.019Z,60.78
2017-07-14T10:43:07.677Z,60
2017-07-14T10:44:07.989Z,60.55
2017-07-14T10:45:07.989Z,61.79
2017-07-14T10:46:07.657Z,62.63
2017-07-14T10:47:07.976Z,62.46
2017-07-14T10:48:07.956Z,62.66
2017-07-14T10:49:07.677Z,63.34
2017-07-14T10:50:07.948Z,63.62
2017-07-14T10:51:07.921Z,63.43
2017-07-14T10:52:07.602Z,63.62
2017-07-14T10:53:07.898Z,64.27
2017-07-14T10:54:07.912Z,64.59
2017-07-14T10:55:07.874Z,64.3
2017-07-14T10:56:07.887Z,62.3
2017-07-14T10:57:07.679Z,62.3
2017-07-14T10:58:07.547Z,62.1
2017-07-14T10:59:07.548Z,63.27
2017-07-14T11:00:07.529Z,63.37
2017-07-14T11:01:07.511Z,63.17
2017-07-14T11:02:07.893Z,62.1
2017-07-14T11:03:07.547Z,62.33
2017-07-14T11:04:07.486Z,62.66
2017-07-14T11:05:07.796Z,62.46
2017-07-14T11:06:07.782Z,62.56
2017-07-14T11:07:07.459Z,62.56
2017-07-14T11:08:07.760Z,62.69
2017-07-14T11:09:07.842Z,62.88
2017-07-14T11:10:07.738Z,62.98
2017-07-14T11:11:07.466Z,62.72
2017-07-14T11:12:07.851Z,63.1
2017-07-14T11:13:07.707Z,62.13
2017-07-14T11:14:07.706Z,63.01
2017-07-14T11:15:07.688Z,64.07
2017-07-14T11:16:07.687Z,64.04
2017-07-14T11:17:07.671Z,63.3
2017-07-14T11:18:07.672Z,63.82
2017-07-14T11:19:07.346Z,64.59
2017-07-14T11:20:07.649Z,62.78
2017-07-14T11:21:07.645Z,63.46
2017-07-14T11:22:07.325Z,62.32
2017-07-14T11:23:07.614Z,62.13
2017-07-14T11:24:07.298Z,61.81
2017-07-14T11:25:07.617Z,61.71
2017-07-14T11:26:07.599Z,62.65
2017-07-14T11:27:07.597Z,63.43
2017-07-14T11:28:07.576Z,63.33
2017-07-14T11:29:07.580Z,63.33
2017-07-14T11:30:07.567Z,62.55
2017-07-14T11:31:07.557Z,61.75
2017-07-14T11:32:07.549Z,61.43
2017-07-14T11:33:07.526Z,61.52
2017-07-14T11:34:07.539Z,61.14
2017-07-14T11:35:07.509Z,61.59
2017-07-14T11:36:07.528Z,61.49
2017-07-14T11:37:07.176Z,62.07
2017-07-14T11:38:07.486Z,62.56
2017-07-14T11:39:07.485Z,62.85
2017-07-14T11:40:07.478Z,61.91
2017-07-14T11:41:07.467Z,61.98
2017-07-14T11:42:07.458Z,62.66
2017-07-14T11:43:07.440Z,63.31
2017-07-14T11:44:07.441Z,63.69
2017-07-14T11:45:07.412Z,63.95
2017-07-14T11:46:07.422Z,63.98
2017-07-14T11:47:07.510Z,64.24
2017-07-14T11:48:07.387Z,63.85
2017-07-14T11:49:07.388Z,63.85
2017-07-14T11:50:07.371Z,62.88
2017-07-14T11:51:07.352Z,62.4
2017-07-14T11:52:07.355Z,62.3
2017-07-14T11:53:07.335Z,62.69
2017-07-14T11:54:07.333Z,61.92
2017-07-14T11:55:07.314Z,62.11
2017-07-14T11:56:06.986Z,62.11
2017-07-14T11:57:07.355Z,62.01
2017-07-14T11:58:07.287Z,62.21
2017-07-14T11:59:07.281Z,61.82
2017-07-14T12:00:07.261Z,62.76
2017-07-14T12:01:07.267Z,62.56
2017-07-14T12:02:06.918Z,62.66
2017-07-14T12:03:07.291Z,63.14
2017-07-14T12:04:07.239Z,63.5
2017-07-14T12:05:07.210Z,63.63
2017-07-14T12:06:07.200Z,63.92
2017-07-14T12:07:07.202Z,64.69
2017-07-14T12:08:07.179Z,65.34
2017-07-14T12:09:07.179Z,65.53
2017-07-14T12:10:07.172Z,65.72
2017-07-14T12:11:07.136Z,65.53
2017-07-14T12:12:07.121Z,66.11
2017-07-14T12:13:07.118Z,66.72
2017-07-14T12:14:07.121Z,67.21
2017-07-14T12:15:07.090Z,67.69
2017-07-14T12:16:07.093Z,67.79
2017-07-14T12:17:07.067Z,67.88
2017-07-14T12:18:07.054Z,67.21
2017-07-14T12:19:07.050Z,67.88
2017-07-14T12:20:07.036Z,68.3
2017-07-14T12:21:06.708Z,67.82
2017-07-14T12:22:06.707Z,66.85
2017-07-14T12:23:07.001Z,66.17
2017-07-14T12:24:06.980Z,65.5
2017-07-14T12:25:06.660Z,65.5
2017-07-14T12:26:06.969Z,66.47
2017-07-14T12:27:06.957Z,67.11
2017-07-14T12:28:06.630Z,67.11
2017-07-14T12:29:06.938Z,67.3
2017-07-14T12:30:06.926Z,67.4
2017-07-14T12:31:06.916Z,67.3
2017-07-14T12:32:06.898Z,67.59
2017-07-14T12:33:06.895Z,67.53
2017-07-14T12:34:06.887Z,66.27
2017-07-14T12:35:06.870Z,67.88
2017-07-14T12:36:06.845Z,68.46
2017-07-14T12:37:06.833Z,69.68
2017-07-14T12:38:06.833Z,71.33
2017-07-14T12:39:06.838Z,72.58
2017-07-14T12:40:06.810Z,72.58
2017-07-14T12:41:06.807Z,72.55
2017-07-14T12:42:06.788Z,72.74
2017-07-14T12:43:06.778Z,72.16
2017-07-14T12:44:06.762Z,73.03
2017-07-14T12:45:06.762Z,73.03
2017-07-14T12:46:06.740Z,73.13
2017-07-14T12:47:06.732Z,73.13
2017-07-14T12:48:06.708Z,72.64
2017-07-14T12:49:06.733Z,72.45
2017-07-14T12:50:06.689Z,72.45
2017-07-14T12:51:06.687Z,72.74
2017-07-14T12:52:06.359Z,72.36
2017-07-14T12:53:06.671Z,71.88
2017-07-14T12:54:06.343Z,72.16